createdAt,value
2022-10-31T00:02:01.956Z,96.30
2022-10-31T00:04:31.539Z,96.30
2022-10-31T00:07:01.084Z,96.40
2022-10-31T00:09:30.538Z,96.30
2022-10-31T00:12:00.003Z,96.40
2022-10-31T00:14:29.465Z,96.30
2022-10-31T00:16:58.962Z,96.40
2022-10-31T00:19:28.470Z,96.40
2022-10-31T00:21:58.108Z,96.40
2022-10-31T00:24:27.658Z,96.40
2022-10-31T00:26:57.177Z,96.50
2022-10-31T00:29:26.647Z,96.50
2022-10-31T00:31:57.227Z,96.50
2022-10-31T00:34:27.080Z,96.50
2022-10-31T00:36:57.002Z,96.50
2022-10-31T00:39:26.861Z,96.60
2022-10-31T00:41:56.715Z,96.50
2022-10-31T00:44:26.511Z,96.60
2022-10-31T00:46:56.372Z,96.50
2022-10-31T00:49:26.192Z,96.50
2022-10-31T00:51:56.034Z,96.50
2022-10-31T00:54:25.963Z,96.50
2022-10-31T00:56:55.755Z,96.50
2022-10-31T00:59:25.612Z,96.40
2022-10-31T01:01:55.665Z,96.60
2022-10-31T01:04:25.670Z,96.60
2022-10-31T01:06:55.647Z,96.70
2022-10-31T01:09:25.548Z,96.70
2022-10-31T01:11:55.388Z,96.80
2022-10-31T01:14:25.114Z,96.70
2022-10-31T01:16:54.862Z,96.70
2022-10-31T01:19:24.687Z,96.70
2022-10-31T01:21:58.040Z,96.70
2022-10-31T01:24:27.896Z,96.60
2022-10-31T01:26:57.791Z,96.70
2022-10-31T01:29:27.625Z,96.60
2022-10-31T01:32:00.945Z,96.50
2022-10-31T01:34:30.499Z,96.50
2022-10-31T01:37:00.236Z,96.30
2022-10-31T01:39:29.849Z,96.30
2022-10-31T01:41:59.386Z,96.20
2022-10-31T01:45:07.785Z,96.20
2022-10-31T01:47:47.935Z,96.20
2022-10-31T01:50:39.393Z,96.10
2022-10-31T01:53:11.155Z,96.10
2022-10-31T01:55:45.731Z,96.00
2022-10-31T01:58:23.059Z,95.90
2022-10-31T02:00:58.077Z,95.90
2022-10-31T02:03:30.144Z,95.60
2022-10-31T02:06:01.483Z,95.50
2022-10-31T02:08:33.992Z,95.40
2022-10-31T02:11:04.843Z,95.20
2022-10-31T02:13:36.659Z,95.10
2022-10-31T02:16:06.323Z,95.00
2022-10-31T02:18:35.980Z,94.90
2022-10-31T02:21:23.520Z,94.80
2022-10-31T02:24:30.691Z,94.70
2022-10-31T02:27:39.586Z,94.40
2022-10-31T02:30:21.660Z,94.10
2022-10-31T02:33:29.972Z,94.00
2022-10-31T02:36:30.572Z,93.90
2022-10-31T02:39:21.777Z,93.60
2022-10-31T02:42:13.880Z,93.50
2022-10-31T02:44:57.740Z,93.10
2022-10-31T02:47:38.775Z,92.90
2022-10-31T02:50:24.580Z,92.60
2022-10-31T02:52:55.517Z,92.40
2022-10-31T02:55:54.208Z,92.20
2022-10-31T02:58:27.453Z,92.10
2022-10-31T03:01:23.408Z,92.10
2022-10-31T03:04:32.367Z,92.00
2022-10-31T03:07:30.709Z,91.50
2022-10-31T03:10:34.089Z,91.10
2022-10-31T03:13:33.427Z,91.10
2022-10-31T03:16:18.399Z,91.10
2022-10-31T03:18:56.760Z,91.00
2022-10-31T03:21:39.716Z,90.90
2022-10-31T03:24:12.480Z,90.70
2022-10-31T03:26:49.811Z,90.70
2022-10-31T03:29:24.103Z,90.30
2022-10-31T03:32:05.953Z,90.20
2022-10-31T03:34:39.742Z,90.00
2022-10-31T03:37:13.759Z,89.00
2022-10-31T03:39:46.635Z,88.80
2022-10-31T03:42:24.872Z,88.30
2022-10-31T03:45:14.750Z,87.40
2022-10-31T03:47:46.431Z,86.70
2022-10-31T03:50:18.273Z,85.90
2022-10-31T03:53:07.153Z,85.80
2022-10-31T03:56:01.257Z,84.80
2022-10-31T03:58:39.875Z,84.40
2022-10-31T04:01:17.935Z,82.90
2022-10-31T04:03:48.503Z,83.40
2022-10-31T04:06:20.380Z,83.00
2022-10-31T04:09:03.701Z,83.30
2022-10-31T04:11:39.617Z,83.20
2022-10-31T04:14:11.408Z,82.90
2022-10-31T04:16:45.454Z,83.10
2022-10-31T04:19:17.326Z,82.30
2022-10-31T04:21:47.214Z,82.10
2022-10-31T04:24:17.119Z,81.10
2022-10-31T04:26:47.027Z,81.40
2022-10-31T04:29:16.855Z,80.80
2022-10-31T04:31:46.674Z,80.80
2022-10-31T04:34:17.682Z,80.20
2022-10-31T04:36:47.893Z,79.30
2022-10-31T04:39:19.403Z,79.60
2022-10-31T04:41:52.415Z,78.60
2022-10-31T04:44:22.289Z,78.30
2022-10-31T04:46:52.163Z,79.10
2022-10-31T04:49:22.002Z,79.10
2022-10-31T05:03:36.652Z,77.20
2022-10-31T05:06:06.651Z,76.80
2022-10-31T05:08:36.635Z,76.80
2022-10-31T05:11:07.560Z,76.60
2022-10-31T05:13:37.714Z,75.30
2022-10-31T05:16:07.938Z,76.10
2022-10-31T05:18:38.289Z,75.80
2022-10-31T05:21:08.209Z,75.70
2022-10-31T05:23:38.078Z,75.50
2022-10-31T05:26:08.047Z,75.20
2022-10-31T05:28:37.903Z,75.00
2022-10-31T05:31:07.906Z,74.60
2022-10-31T05:33:37.778Z,73.70
2022-10-31T05:36:07.693Z,73.60
2022-10-31T05:38:37.340Z,73.50
2022-10-31T05:41:06.967Z,73.50
2022-10-31T05:43:36.525Z,73.10
2022-10-31T05:46:06.208Z,72.60
2022-10-31T05:48:35.749Z,72.90
2022-10-31T05:51:05.274Z,72.60
2022-10-31T05:53:34.727Z,72.20
2022-10-31T05:56:04.313Z,71.80
2022-10-31T05:58:33.865Z,71.80
2022-10-31T06:01:03.575Z,72.00
2022-10-31T06:03:33.588Z,72.30
2022-10-31T06:06:03.410Z,72.70
2022-10-31T06:08:32.945Z,72.20
2022-10-31T06:11:02.408Z,71.70
2022-10-31T06:13:31.964Z,71.10
2022-10-31T06:16:01.469Z,71.40
2022-10-31T06:18:31.146Z,71.20
2022-10-31T06:21:00.709Z,71.40
2022-10-31T06:23:30.342Z,72.20
2022-10-31T06:26:00.189Z,71.20
2022-10-31T06:28:29.844Z,71.30
2022-10-31T06:30:59.280Z,71.30
2022-10-31T06:33:28.851Z,71.30
2022-10-31T06:35:58.823Z,70.70
2022-10-31T06:38:29.603Z,70.90
2022-10-31T06:40:59.128Z,70.50
2022-10-31T06:43:28.577Z,70.60
2022-10-31T06:45:58.064Z,70.70
2022-10-31T06:48:27.978Z,70.90
2022-10-31T06:51:01.994Z,70.50
2022-10-31T06:53:35.761Z,70.30
2022-10-31T06:56:05.453Z,71.00
2022-10-31T06:58:34.951Z,69.90
2022-10-31T07:01:04.805Z,69.90
2022-10-31T07:03:34.720Z,69.60
2022-10-31T07:06:04.795Z,69.40
2022-10-31T07:08:34.723Z,69.80
2022-10-31T07:11:04.294Z,69.60
2022-10-31T07:13:33.928Z,69.70
2022-10-31T07:16:05.661Z,69.30
2022-10-31T07:18:35.370Z,69.30
2022-10-31T07:21:05.038Z,68.50
2022-10-31T07:23:34.683Z,69.20
2022-10-31T07:26:04.375Z,69.40
2022-10-31T07:28:33.981Z,69.30
2022-10-31T07:31:03.490Z,69.20
2022-10-31T07:33:33.046Z,69.20
2022-10-31T07:36:04.469Z,69.20
2022-10-31T07:38:33.980Z,68.00
2022-10-31T07:41:03.469Z,68.50
2022-10-31T07:43:32.983Z,68.10
2022-10-31T07:46:02.549Z,68.40
2022-10-31T07:48:32.092Z,68.20
2022-10-31T07:51:01.648Z,68.30
2022-10-31T07:53:31.160Z,68.60
2022-10-31T07:56:00.683Z,68.90
2022-10-31T07:58:30.295Z,68.80
2022-10-31T08:01:01.473Z,68.80
2022-10-31T08:03:31.426Z,69.00
2022-10-31T08:06:00.922Z,68.90
2022-10-31T08:08:33.382Z,69.00
2022-10-31T08:11:06.003Z,69.40
2022-10-31T08:13:35.539Z,69.20
2022-10-31T08:16:06.970Z,69.60
2022-10-31T08:18:36.629Z,69.70
2022-10-31T08:21:06.127Z,69.40
2022-10-31T08:23:35.640Z,69.10
2022-10-31T08:26:05.259Z,69.00
2022-10-31T08:28:35.225Z,69.00
2022-10-31T08:31:04.852Z,68.90
2022-10-31T08:33:34.498Z,69.00
2022-10-31T08:36:04.464Z,69.10
2022-10-31T08:38:34.338Z,69.10
2022-10-31T08:41:03.845Z,69.10
2022-10-31T08:43:33.301Z,69.00
2022-10-31T08:46:03.010Z,69.10
2022-10-31T08:48:32.912Z,68.90
2022-10-31T08:51:03.027Z,68.70
2022-10-31T08:53:32.651Z,68.80
2022-10-31T08:56:02.235Z,68.20
2022-10-31T08:58:34.174Z,67.90
2022-10-31T09:01:05.991Z,68.10
2022-10-31T09:03:36.034Z,67.70
2022-10-31T09:06:08.372Z,67.80
2022-10-31T09:08:38.943Z,67.70
2022-10-31T09:11:09.198Z,67.70
2022-10-31T09:13:41.482Z,67.90
2022-10-31T09:16:11.267Z,67.90
2022-10-31T09:18:40.763Z,67.90
2022-10-31T09:21:11.423Z,68.00
2022-10-31T09:23:40.959Z,68.20
2022-10-31T09:26:10.456Z,68.30
2022-10-31T09:28:40.160Z,68.20
2022-10-31T09:31:15.827Z,67.80
2022-10-31T09:33:48.384Z,67.80
2022-10-31T09:36:18.527Z,67.50
2022-10-31T09:38:48.060Z,67.80
2022-10-31T09:41:49.918Z,67.90
2022-10-31T09:44:56.876Z,68.20
2022-10-31T09:47:55.947Z,68.40
2022-10-31T09:50:41.819Z,68.50
2022-10-31T09:53:50.419Z,68.80
2022-10-31T09:56:23.595Z,69.00
2022-10-31T09:59:05.609Z,69.30
2022-10-31T10:01:58.363Z,69.60
2022-10-31T10:04:59.667Z,69.90
2022-10-31T10:07:57.738Z,70.10
2022-10-31T10:11:06.483Z,70.30
2022-10-31T10:14:03.315Z,70.70
2022-10-31T10:17:11.965Z,70.80
2022-10-31T10:20:22.586Z,71.10
2022-10-31T10:23:31.707Z,71.40
2022-10-31T10:26:28.488Z,72.20
2022-10-31T10:29:06.715Z,71.70
2022-10-31T10:31:44.477Z,71.90
2022-10-31T10:34:25.817Z,72.00
2022-10-31T10:37:08.304Z,72.20
2022-10-31T10:39:44.339Z,72.60
2022-10-31T10:42:38.690Z,72.90
2022-10-31T10:45:40.146Z,73.00
2022-10-31T10:48:42.471Z,73.50
2022-10-31T10:52:07.542Z,73.70
2022-10-31T10:55:02.999Z,73.80
2022-10-31T10:57:58.046Z,74.20
2022-10-31T11:00:39.314Z,74.40
2022-10-31T11:03:09.559Z,74.80
2022-10-31T11:06:04.385Z,75.10
2022-10-31T11:08:39.161Z,75.60
2022-10-31T11:11:34.643Z,75.80
2022-10-31T11:14:08.858Z,76.30
2022-10-31T11:16:45.138Z,76.70
2022-10-31T11:19:24.185Z,77.00
2022-10-31T11:21:54.184Z,77.60
2022-10-31T11:24:30.050Z,78.10
2022-10-31T11:27:22.752Z,78.70
2022-10-31T11:29:58.201Z,79.70
2022-10-31T11:32:32.368Z,79.80
2022-10-31T11:35:05.074Z,80.40
2022-10-31T11:37:38.604Z,80.50
2022-10-31T11:40:10.014Z,80.70
2022-10-31T11:42:45.533Z,80.90
2022-10-31T11:45:34.507Z,81.40
2022-10-31T11:48:05.952Z,81.70
2022-10-31T11:50:44.489Z,81.70
2022-10-31T11:53:25.846Z,82.30
2022-10-31T11:56:19.013Z,82.70
2022-10-31T11:58:59.840Z,83.70
2022-10-31T12:01:34.445Z,83.80
2022-10-31T12:04:11.579Z,83.90
2022-10-31T12:06:43.524Z,84.40
2022-10-31T12:09:28.788Z,84.70
2022-10-31T12:12:27.562Z,84.60
2022-10-31T12:15:36.167Z,85.00
2022-10-31T12:18:34.240Z,85.20
2022-10-31T12:21:43.118Z,85.20
2022-10-31T12:24:43.239Z,85.70
2022-10-31T12:27:34.203Z,86.00
2022-10-31T12:30:22.711Z,86.20
2022-10-31T12:33:31.436Z,86.40
2022-10-31T12:36:21.269Z,86.60
2022-10-31T12:39:27.659Z,86.90
2022-10-31T12:42:31.667Z,87.10
2022-10-31T12:45:18.393Z,87.10
2022-10-31T12:48:27.130Z,87.40
2022-10-31T12:51:24.247Z,87.80
2022-10-31T12:54:32.860Z,88.00
2022-10-31T12:57:35.429Z,88.20
2022-10-31T13:00:18.622Z,88.30
2022-10-31T13:02:56.188Z,88.50
2022-10-31T13:05:46.019Z,88.50
2022-10-31T13:08:29.560Z,88.50
2022-10-31T13:11:12.540Z,88.60
2022-10-31T13:14:12.850Z,88.60
2022-10-31T13:16:53.435Z,89.20
2022-10-31T13:19:29.162Z,89.60
2022-10-31T13:22:28.522Z,89.80
2022-10-31T13:25:12.703Z,90.00
2022-10-31T13:28:04.554Z,90.00
2022-10-31T13:30:40.831Z,90.00
2022-10-31T13:33:43.171Z,90.40
2022-10-31T13:36:39.123Z,90.10
2022-10-31T13:39:35.907Z,90.10
2022-10-31T13:42:44.557Z,90.20
2022-10-31T13:45:23.566Z,90.20
2022-10-31T13:48:32.180Z,90.30
2022-10-31T13:51:04.789Z,90.40
2022-10-31T13:53:45.460Z,90.40
2022-10-31T13:56:27.453Z,90.80
2022-10-31T13:59:22.420Z,90.50
2022-10-31T14:02:05.351Z,90.50
2022-10-31T14:04:50.970Z,90.60
2022-10-31T14:07:25.773Z,90.60
2022-10-31T14:10:06.658Z,90.60
2022-10-31T14:12:48.021Z,90.60
2022-10-31T14:15:24.481Z,90.60
2022-10-31T14:18:10.188Z,90.60
2022-10-31T14:20:48.467Z,90.70
2022-10-31T14:23:39.072Z,90.80
2022-10-31T14:26:36.592Z,90.90
2022-10-31T14:29:27.711Z,90.90
2022-10-31T14:32:10.163Z,91.00
2022-10-31T14:34:45.432Z,91.00
2022-10-31T14:37:51.683Z,91.10
2022-10-31T14:40:46.926Z,91.10
2022-10-31T14:43:47.037Z,91.10
2022-10-31T14:46:43.467Z,91.20
2022-10-31T14:49:40.993Z,91.10
2022-10-31T14:52:15.728Z,91.10
2022-10-31T14:54:51.503Z,91.30
2022-10-31T14:57:41.276Z,91.20
2022-10-31T15:00:20.044Z,91.30
2022-10-31T15:03:15.582Z,91.30
2022-10-31T15:05:50.089Z,91.40
2022-10-31T15:08:43.549Z,91.50
2022-10-31T15:11:24.110Z,91.50
2022-10-31T15:13:58.107Z,91.50
2022-10-31T15:16:40.725Z,91.50
2022-10-31T15:19:17.421Z,91.50
2022-10-31T15:21:48.663Z,91.60
2022-10-31T15:24:20.923Z,91.60
2022-10-31T15:26:56.905Z,91.70
2022-10-31T15:29:29.323Z,91.60
2022-10-31T15:32:05.367Z,91.70
2022-10-31T15:34:43.691Z,91.70
2022-10-31T15:37:16.501Z,91.70
2022-10-31T15:39:47.160Z,91.80
2022-10-31T15:42:38.432Z,91.80
2022-10-31T15:45:26.528Z,91.90
2022-10-31T15:48:16.868Z,91.90
2022-10-31T15:50:54.223Z,91.90
2022-10-31T15:53:50.999Z,91.90
2022-10-31T15:56:28.557Z,91.90
2022-10-31T15:59:00.351Z,91.90
2022-10-31T16:01:33.253Z,91.90
2022-10-31T16:04:23.958Z,91.90
2022-10-31T16:07:23.874Z,91.90
2022-10-31T16:10:00.703Z,92.00
2022-10-31T16:12:46.934Z,92.00
2022-10-31T16:15:22.382Z,92.00
2022-10-31T16:17:59.242Z,92.10
2022-10-31T16:20:34.719Z,92.10
2022-10-31T16:23:04.618Z,92.10
2022-10-31T16:25:42.321Z,92.30
2022-10-31T16:28:26.742Z,92.30
2022-10-31T16:31:01.817Z,92.30
2022-10-31T16:33:40.049Z,92.40
2022-10-31T16:36:35.721Z,92.40
2022-10-31T16:39:06.578Z,92.60
2022-10-31T16:41:41.777Z,92.50
2022-10-31T16:44:31.099Z,92.60
2022-10-31T16:47:22.189Z,92.70
2022-10-31T16:49:54.489Z,92.70
2022-10-31T16:52:24.455Z,92.80
2022-10-31T16:54:54.349Z,92.80
2022-10-31T16:57:30.401Z,92.70
2022-10-31T17:00:00.985Z,92.80
2022-10-31T17:02:31.500Z,92.80
2022-10-31T17:05:01.080Z,92.80
2022-10-31T17:07:30.612Z,92.80
2022-10-31T17:10:00.206Z,92.90
2022-10-31T17:12:30.796Z,93.00
2022-10-31T17:15:00.952Z,93.00
2022-10-31T17:17:30.927Z,92.90
2022-10-31T17:20:00.717Z,93.00
2022-10-31T17:22:30.911Z,93.10
2022-10-31T17:25:00.849Z,93.10
2022-10-31T17:27:30.707Z,93.20
2022-10-31T17:30:00.588Z,93.20
2022-10-31T17:32:30.130Z,93.20
2022-10-31T17:34:59.668Z,93.20
2022-10-31T17:37:29.254Z,93.20
2022-10-31T17:39:58.692Z,93.20
2022-10-31T17:42:28.386Z,93.30
2022-10-31T17:44:58.259Z,93.30
2022-10-31T17:47:28.112Z,93.30
2022-10-31T17:49:57.978Z,93.30
2022-10-31T17:52:27.770Z,93.30
2022-10-31T17:54:57.696Z,93.40
2022-10-31T17:57:27.575Z,93.40
2022-10-31T17:59:57.475Z,93.50
2022-10-31T18:02:27.528Z,93.40
2022-10-31T18:04:57.452Z,93.40
2022-10-31T18:07:27.235Z,93.50
2022-10-31T18:09:56.938Z,93.80
2022-10-31T18:12:26.864Z,93.90
2022-10-31T18:14:56.812Z,93.70
2022-10-31T18:17:28.206Z,93.70
2022-10-31T18:19:57.758Z,93.80
2022-10-31T18:22:27.316Z,93.90
2022-10-31T18:25:01.812Z,94.00
2022-10-31T18:27:31.858Z,94.10
2022-10-31T18:30:01.364Z,94.10
2022-10-31T18:32:31.615Z,94.10
2022-10-31T18:35:01.129Z,94.20
2022-10-31T18:37:30.915Z,94.10
2022-10-31T18:40:00.473Z,94.20
2022-10-31T18:42:29.963Z,94.20
2022-10-31T18:45:06.653Z,94.20
2022-10-31T18:47:47.367Z,94.20
2022-10-31T18:50:16.872Z,94.20
2022-10-31T18:52:46.449Z,94.20
2022-10-31T18:55:16.238Z,94.20
2022-10-31T18:57:45.897Z,94.20
2022-10-31T19:00:16.139Z,94.30
2022-10-31T19:02:45.920Z,94.30
2022-10-31T19:05:15.488Z,94.20
2022-10-31T19:07:44.978Z,94.20
2022-10-31T19:10:14.508Z,94.30
2022-10-31T19:12:44.018Z,94.40
2022-10-31T19:15:13.982Z,94.40
2022-10-31T19:17:44.155Z,94.40
2022-10-31T19:20:15.554Z,94.50
2022-10-31T19:22:45.497Z,94.50
2022-10-31T19:25:15.449Z,94.50
2022-10-31T19:27:45.259Z,94.40
2022-10-31T19:30:15.914Z,94.70
2022-10-31T19:32:45.793Z,94.70
2022-10-31T19:35:16.003Z,94.70
2022-10-31T19:37:45.892Z,94.80
2022-10-31T19:40:15.748Z,95.00
2022-10-31T19:42:45.620Z,95.10
2022-10-31T19:45:15.404Z,95.20
2022-10-31T19:47:45.278Z,95.30
2022-10-31T19:50:15.138Z,95.30
2022-10-31T19:52:44.932Z,95.30
2022-10-31T19:55:14.981Z,95.60
2022-10-31T20:00:34.679Z,95.60
2022-10-31T20:03:04.984Z,95.60
2022-10-31T20:05:35.297Z,95.70
2022-10-31T20:08:04.922Z,95.70
2022-10-31T20:10:34.400Z,95.60
2022-10-31T20:13:04.138Z,95.70
2022-10-31T20:15:33.868Z,95.70
2022-10-31T20:18:03.763Z,95.60
2022-10-31T20:20:34.639Z,95.60
2022-10-31T20:23:04.632Z,95.50
2022-10-31T20:25:34.914Z,95.50
2022-10-31T20:28:04.734Z,95.50
2022-10-31T20:30:38.527Z,95.50
2022-10-31T20:33:08.347Z,95.50
2022-10-31T20:35:42.453Z,95.50
2022-10-31T20:38:12.078Z,95.50
2022-10-31T20:40:41.764Z,95.50
2022-10-31T20:43:13.587Z,95.50
2022-10-31T20:45:43.168Z,95.50
2022-10-31T20:48:12.691Z,95.60
2022-10-31T20:50:42.298Z,95.50
2022-10-31T20:53:11.845Z,95.50
2022-10-31T20:55:41.360Z,95.50
2022-10-31T20:58:11.069Z,95.50
2022-10-31T21:00:40.849Z,95.50
2022-10-31T21:03:11.118Z,95.50
2022-10-31T21:05:40.965Z,95.50
2022-10-31T21:08:12.128Z,95.50
2022-10-31T21:10:41.947Z,95.50
2022-10-31T21:13:11.909Z,95.50
2022-10-31T21:15:42.127Z,95.50
2022-10-31T21:18:12.261Z,95.50
2022-10-31T21:20:45.284Z,95.40
2022-10-31T21:23:15.657Z,95.40
2022-10-31T21:25:45.800Z,95.50
2022-10-31T21:28:16.188Z,95.50
2022-10-31T21:30:50.712Z,95.50
2022-10-31T21:33:20.751Z,95.50
2022-10-31T21:35:54.437Z,95.50
2022-10-31T21:38:24.339Z,95.40
2022-10-31T21:41:00.375Z,95.50
2022-10-31T21:43:30.622Z,95.50
2022-10-31T21:46:13.142Z,95.50
2022-10-31T21:48:45.122Z,95.50
2022-10-31T21:51:18.439Z,95.50
2022-10-31T21:54:08.012Z,95.50
2022-10-31T21:56:38.549Z,95.50
2022-10-31T21:59:08.869Z,95.60
2022-10-31T22:01:39.390Z,95.60
2022-10-31T22:04:09.370Z,95.60
2022-10-31T22:06:39.494Z,95.60
2022-10-31T22:09:10.743Z,95.60
2022-10-31T22:11:40.584Z,95.60
2022-10-31T22:14:12.759Z,95.60
2022-10-31T22:16:42.977Z,95.60
2022-10-31T22:19:14.628Z,95.70
2022-10-31T22:21:48.034Z,95.70
2022-10-31T22:24:19.290Z,95.80
2022-10-31T22:26:49.249Z,95.70
2022-10-31T22:29:20.997Z,95.70
2022-10-31T22:31:57.229Z,95.70
2022-10-31T22:34:29.571Z,95.70
2022-10-31T22:36:59.463Z,95.70
2022-10-31T22:39:30.229Z,95.70
2022-10-31T22:42:00.026Z,95.70
2022-10-31T22:44:29.853Z,95.70
2022-10-31T22:46:59.646Z,95.70
2022-10-31T22:49:29.617Z,95.70
2022-10-31T22:52:01.427Z,95.80
2022-10-31T22:54:31.180Z,95.80
2022-10-31T22:57:00.649Z,95.80
2022-10-31T22:59:30.213Z,95.80
2022-10-31T23:02:00.224Z,95.80
2022-10-31T23:04:29.756Z,95.80
2022-10-31T23:06:59.364Z,95.80
2022-10-31T23:09:28.883Z,95.80
2022-10-31T23:12:18.058Z,95.80
2022-10-31T23:14:47.573Z,95.80
2022-10-31T23:17:19.273Z,95.90
2022-10-31T23:19:49.060Z,95.90
2022-10-31T23:22:18.943Z,95.90
2022-10-31T23:24:49.792Z,95.90
2022-10-31T23:27:25.698Z,95.90
2022-10-31T23:29:57.855Z,96.30
2022-10-31T23:32:36.842Z,96.00
2022-10-31T23:35:11.916Z,96.30
2022-10-31T23:37:41.925Z,96.00
2022-10-31T23:40:12.109Z,96.10
2022-10-31T23:42:41.922Z,96.10
2022-10-31T23:45:12.044Z,96.10
2022-10-31T23:47:43.420Z,96.10
2022-10-31T23:50:14.137Z,96.20
2022-10-31T23:52:44.020Z,96.20
2022-10-31T23:55:13.799Z,96.20
2022-10-31T23:57:43.740Z,96.20
